Saturday, February 24, 2018, 10:21 PM EST
Back to Local

KDXR, Danbury Municipal Airport

Location: Danbury, CT, United States Lat: 41.367
Local Time: 10:21 PM EST ( 3:21 GMT) Lon: -73.483
Time Zone: US/Eastern Elev: 459 ft

Show me the last for .
Show Decoded

2018-02-24 21:53 METAR KDXR 250253Z 00000KT 10SM BKN055 BKN065 OVC080 05/03 A3022 RMK AO2 RAE42
                 SLP233 P0000 60002 T00500033 50009 =
2018-02-24 20:53 METAR KDXR 250153Z 00000KT 10SM -RA FEW034 OVC055 05/04 A3024 RMK AO2 SLP243
                 P0001 T00500039 =
2018-02-24 19:53 METAR KDXR 250053Z 00000KT 10SM -RA FEW075 OVC095 05/04 A3021 RMK AO2 SLP231
                 P0001 T00500039 =
2018-02-24 19:19 METAR KDXR 250019Z 03003KT 10SM -RA SCT015 OVC095 05/03 A3018 RMK AO2 P0000
                 T00500033 =
2018-02-24 18:53 METAR KDXR 242353Z 05005KT 8SM -RA FEW012 BKN016 OVC090 06/04 A3019 RMK AO2
                 SLP226 P0004 60017 T00560044 10094 20056 53007 =
2018-02-24 17:53 METAR KDXR 242253Z 06004KT 6SM -RA BR BKN075 OVC090 06/05 A3018 RMK AO2 SLP221
                 P0002 T00610050 =
2018-02-24 16:53 METAR KDXR 242153Z 09003KT 10SM -RA OVC080 07/06 A3017 RMK AO2 SLP218 P0001
                 T00720056 =
2018-02-24 15:53 METAR KDXR 242053Z 35004KT 5SM -RA BR FEW020 OVC070 08/06 A3017 RMK AO2 SLP217
                 P0002 60010 T00780061 53001 =
2018-02-24 14:53 METAR KDXR 241953Z 31004KT 6SM -RA BR OVC070 08/06 A3017 RMK AO2 SLP218 P0005
                 T00830061 =
2018-02-24 13:53 METAR KDXR 241853Z 01003KT 5SM -RA OVC080 08/06 A3013 RMK AO2 SLP206 P0003
                 T00830056 =
2018-02-24 12:53 METAR KDXR 241753Z 30006KT 8SM -RA OVC085 09/04 A3017 RMK AO2 RAB41 SLP217 P0000
                 60000 T00940044 10106 20011 53001 =
2018-02-24 11:53 METAR KDXR 241653Z 31009KT 10SM FEW055 SCT080 BKN110 10/03 A3016 RMK AO2 SLP213
                 T01000033 =
2018-02-24 10:53 METAR KDXR 241553Z 32006KT 10SM FEW110 11/05 A3016 RMK AO2 SLP214 T01060050 =
2018-02-24 09:53 METAR KDXR 241453Z 35007KT 10SM CLR 09/05 A3016 RMK AO2 SLP217 T00890050 51002 =
2018-02-24 09:06 METAR KDXR 241406Z 36006KT 10SM SCT009 08/05 A3016 RMK AO2 T00780050 =
2018-02-24 08:53 METAR KDXR 241353Z 36005KT 10SM CLR 07/05 A3016 RMK AO2 SLP215 T00720050 =
2018-02-24 07:53 METAR KDXR 241253Z 00000KT 3SM BR SCT002 03/03 A3017 RMK AO2 SLP218 T00330033 =
2018-02-24 07:49 METAR KDXR 241249Z 00000KT 1 1/4SM BR BKN004 03/03 A3017 RMK AO2 =
2018-02-24 06:53 METAR KDXR 241153Z 00000KT 1/2SM FG BKN004 BKN010 01/01 A3016 RMK AO2 SLP216
                 70016 T00110011 10050 20011 53014 =
2018-02-24 06:42 METAR KDXR 241142Z AUTO 00000KT 1/2SM FG SCT004 BKN010 02/01 A3016 RMK AO2
                 T00170011 =
2018-02-24 06:27 METAR KDXR 241127Z AUTO 00000KT 3/4SM BR VV009 02/02 A3015 RMK AO2 VIS 1/2V2 1/2
                 T00220017 =
2018-02-24 06:21 METAR KDXR 241121Z AUTO 00000KT 1 1/2SM BR SCT008 03/02 A3014 RMK AO2 VIS 1V2
                 1/2 T00280022 =
2018-02-24 06:09 METAR KDXR 241109Z AUTO 00000KT 1SM BR VV007 03/02 A3014 RMK AO2 T00280022 =
2018-02-24 06:03 METAR KDXR 241103Z AUTO 00000KT 1 3/4SM BR CLR 03/02 A3014 RMK AO2 T00280022 =
2018-02-24 05:53 METAR KDXR 241053Z AUTO 00000KT 3SM BR CLR 03/02 A3012 RMK AO2 SLP203 T00280022
                 =
2018-02-24 05:33 METAR KDXR 241033Z AUTO 00000KT 7SM SCT013 04/03 A3013 RMK AO2 T00440033 =
2018-02-24 05:16 METAR KDXR 241016Z AUTO 00000KT 8SM OVC014 04/03 A3012 RMK AO2 T00440033 =
2018-02-24 04:53 METAR KDXR 240953Z AUTO 00000KT 8SM BKN015 04/04 A3012 RMK AO2 SLP201 T00440039
                 =
2018-02-24 04:51 METAR KDXR 240951Z AUTO 00000KT 8SM BKN015 04/04 A3012 RMK AO2 =
2018-02-24 03:53 METAR KDXR 240853Z AUTO 26005KT 9SM CLR 05/04 A3010 RMK AO2 SLP195 T00500039
                 58014 =
2018-02-24 03:00 METAR KDXR 240800Z AUTO 25007KT 7SM SCT006 04/03 A3011 RMK AO2 T00390033 =
2018-02-24 02:53 METAR KDXR 240753Z AUTO 25008KT 7SM BKN005 04/03 A3012 RMK AO2 SLP202 T00390033
                 =
2018-02-24 02:41 METAR KDXR 240741Z AUTO VRB03KT 7SM BKN005 04/03 A3012 RMK AO2 T00390033 =
2018-02-24 01:53 METAR KDXR 240653Z AUTO 23003KT 6SM BR OVC004 03/03 A3014 RMK AO2 SLP209
                 T00330033 =
2018-02-24 01:36 METAR KDXR 240636Z AUTO 27003KT 5SM BR OVC004 03/03 A3014 RMK AO2 T00330033 =
2018-02-24 01:08 METAR KDXR 240608Z AUTO VRB04KT 3SM BR OVC002 03/03 A3014 RMK AO2 T00330033 =
2018-02-24 00:53 METAR KDXR 240553Z AUTO 26004KT 2SM BR OVC002 03/03 A3014 RMK AO2 SLP210
                 T00330028 10033 20022 56019 =
2018-02-24 00:45 METAR KDXR 240545Z AUTO 25005KT 2SM BR OVC002 03/03 A3015 RMK AO2 T00330028 =
2018-02-24 00:23 METAR KDXR 240523Z AUTO 26005KT 1 1/4SM BR OVC003 03/03 A3015 RMK AO2 T00280028
                 =
2018-02-23 23:53 METAR KDXR 240453Z AUTO 25005KT 1SM BR VV003 03/02 A3016 RMK AO2 SLP216
                 T00280022 400280006 =
2018-02-23 23:21 METAR KDXR 240421Z AUTO 24003KT 3/4SM BR VV003 03/02 A3016 RMK AO2 T00280022 =
2018-02-23 22:53 METAR KDXR 240353Z AUTO 23004KT 1SM BR VV003 02/02 A3017 RMK AO2 SLP218
                 T00220022 =

Support USWX by starting your Amazon purchase here.